Airfield :
LOGIN :

Register | Disclaimer

   EN    FR    IT 

 










Legend :    VFR   Marginal VFR   IFR   Intensive IFR   Very Intensive IFR
Visi :
Ceiling :
>= 8 km
>= 3000ft
5 to 8 km
1000 to 3000 ft
1500m to 5 km
500 to 1000 ft
800 to 1500m
200 to 500 ft
< 800m
< 200 ft
Symbols :   Thunderstorms  Fog  Heavy snow  Heavy precipitations  Wind > 20 kt
SIGMETs :     Misc.  Thunderstorms  Icing  Turbulence  Mountain Waves  Volcanic Ashes






- Airport Elevation : 348 ft
- IATA code : STN


EGSS - London Stansted

CURRENT METAR :
  • 192050Z AUTO 07009KT 9999 -RA SCT010 OVC019 13/12 Q1011

EXPIRED METARs :
  • 192020Z AUTO 08006KT 050V120 9999 FEW011 OVC016 13/12 Q1011
  • 191950Z AUTO 07007KT 010V100 9999 SCT010 OVC018 13/12 Q1012
  • 191920Z AUTO 07008KT 9999 -RA OVC011 13/12 Q1011
  • 191850Z AUTO 06007KT 9999 -RA OVC015 13/13 Q1012
  • 191820Z AUTO 09008KT 7000 OVC007 13/12 Q1013
  • 191750Z AUTO 08008KT 7000 -RA BKN007 OVC021 14/13 Q1013

TAF TAF EGSS
Valid from the 19 at 18:00 until the 21 at 00:00 UTC


191702Z 1918/2024 07010KT 9999 SCT008 BKN016
TEMPO 1918/1922 5000 -RADZ BKN009
PROB40
TEMPO 1918/1922 2000 RADZ BKN003
BECMG 1922/2001 BKN008
TEMPO 1922/2003 5000 -RADZ BKN004
PROB30
TEMPO 1922/2003 2000 RADZ
PROB40
TEMPO 2003/2008 1200 RADZ MIFG BKN001
TEMPO 2008/2011 4000 -RADZ BKN004
BECMG 2011/2014 BKN025
PROB30
TEMPO 2011/2017 8000 SHRA BKN012
TEMPO 2017/2024 4000 -RADZ BKN004
PROB30
TEMPO 2020/2024 1400 RADZ BKN001
ATIS : +44 1279 669 325



MET'MAP, your aeronautical weather chart ! - Copyright ORBIFLY December 2007 - Disclaimer

ORBIFLY MET'MAP TEAM :

Programming & Development : Alexandra Zaïnal
Concept & original design : Baudouin d'Aumeries
Assistance for programming : Marc-Olivier Méhu
Technical & hardware support : Manuel Goepfert

Contact : metmap@orbifly.com




SOURCES & CREDITS :

   NOAA